POGODA: Poland

Lotnisko: Warszawa-Okecie

METAR KOD: EPWA


METAR: EPWA 250630Z 08005KT 040V100 9999 -SHRA FEW026 SCT046CB 18/15 Q1016 NOSIG


BLOK
Pogoda METAR
250630Z
Dzien: 25, Godzina: 06:30 UTC.
08005KT
Wiatr z kierunku 080, o predkosci 9 km/h
040V100
Wiatr zmienny pomiedzy 040 i 100
9999
Widzialnosc pozioma ponad 10 km.
-SHRA
slab. opady przelotne deszcz
FEW026
1/8 - 2/8 pokrycia nieba, chmurami o podstawie: 780 metrow
SCT046CB
3/8 - 4/8 pokrycia nieba, chmurami o podstawie: 1380 metrow, cumulonimbus
18/15
Temperatura: powietrze 18°C, punkt rosy 15°C . Wilgotnosc wzgledna 83 %
Q1016
Cisnienie: 1016 hPa
NOSIG
Pogoda bedzie bez zmian

Pogoda na innym lotnisku

Pogoda Gdansk-Rebiechowo WEATHER Poland  
Pogoda Katowice WEATHER Poland  
Pogoda Krakow WEATHER Poland  
Pogoda Poznan WEATHER Poland  
Pogoda Rzeszow-Jasionka WEATHER Poland  
Pogoda Szczecin WEATHER Poland  
Pogoda Warszawa-Okecie WEATHER Poland  
Pogoda Wroclaw Ii WEATHER Poland  

Pogoda w inny kraju

Strona startowa

(C) by GREGOR 2007
Ogłoszenia Towarzyskie